Time;durP1;ratioP1;P1;durP2;ratioP2;P2;SDS_P1;SDS_P2;PMS_P1;PMS_P2;Temp;Humidity;BMP_temperature;BMP_pressure;BME280_temperature;BME280_humidity;BME280_pressure;Samples;Min_cycle;Max_cycle;Signal;HPM_P1;HPM_P2
2023/09/16 00:00:34;;;;;;;2.08;1.65;;;13.40;99.90;;;;;;4875105;29;20048;-78
2023/09/16 00:03:00;;;;;;;2.08;1.40;;;13.30;99.90;;;;;;4877083;29;20049;-78
2023/09/16 00:05:26;;;;;;;2.40;1.77;;;13.30;99.90;;;;;;4878302;29;20052;-78
2023/09/16 00:07:52;;;;;;;;;;;13.30;99.90;;;;;;4863174;29;20068;-79
2023/09/16 00:10:18;;;;;;;1.70;1.45;;;13.20;99.90;;;;;;4862355;29;19923;-78
2023/09/16 00:12:43;;;;;;;2.05;1.70;;;13.10;99.90;;;;;;4862662;29;20096;-78
2023/09/16 00:15:09;;;;;;;2.17;1.70;;;13.10;99.90;;;;;;4878241;29;20052;-78
2023/09/16 00:17:36;;;;;;;1.73;1.40;;;13.10;99.90;;;;;;4878054;29;20074;-78
2023/09/16 00:20:15;;;;;;;2.20;1.70;;;13.00;99.90;;;;;;4878196;29;20460;-78
2023/09/16 00:22:45;;;;;;;2.33;1.70;;;13.00;99.90;;;;;;4878638;29;20097;-78
2023/09/16 00:25:11;;;;;;;2.97;1.77;;;12.90;99.90;;;;;;4878309;29;20450;-78
2023/09/16 00:27:39;;;;;;;2.45;1.90;;;12.90;99.90;;;;;;4878281;29;20114;-78
2023/09/16 00:30:05;;;;;;;2.20;1.80;;;12.90;99.90;;;;;;4854032;29;20051;-78
2023/09/16 00:32:32;;;;;;;2.20;1.98;;;12.80;99.90;;;;;;4877676;29;20446;-78
2023/09/16 00:34:58;;;;;;;;;;;12.80;99.90;;;;;;4862838;29;20416;-78
2023/09/16 00:37:23;;;;;;;2.22;2.03;;;12.80;99.90;;;;;;4876708;29;19923;-78
2023/09/16 00:39:50;;;;;;;2.83;1.92;;;12.80;99.90;;;;;;4843341;29;20500;-78
2023/09/16 00:42:16;;;;;;;1.98;1.52;;;12.70;99.90;;;;;;4862458;29;20056;-78
2023/09/16 00:44:42;;;;;;;2.35;1.75;;;12.60;99.90;;;;;;4862732;29;20045;-78
2023/09/16 00:47:08;;;;;;;2.30;1.60;;;12.60;99.90;;;;;;4878051;29;20049;-78
2023/09/16 00:49:34;;;;;;;1.92;1.67;;;12.60;99.90;;;;;;4861838;29;20465;-78
2023/09/16 00:52:00;;;;;;;2.22;1.63;;;12.60;99.90;;;;;;4877339;29;20462;-78
2023/09/16 00:54:26;;;;;;;2.15;1.70;;;12.60;99.90;;;;;;4876873;29;20571;-78
2023/09/16 00:56:53;;;;;;;;;;;12.50;99.90;;;;;;4877944;29;20136;-78
2023/09/16 00:59:22;;;;;;;2.92;1.90;;;12.60;99.90;;;;;;4876811;29;20002;-78
2023/09/16 01:01:51;;;;;;;2.00;1.65;;;12.60;99.90;;;;;;4877395;29;20044;-78
2023/09/16 01:04:19;;;;;;;3.33;2.10;;;12.50;99.90;;;;;;4862405;29;20472;-78
2023/09/16 01:06:47;;;;;;;5.18;2.55;;;12.50;99.90;;;;;;4877112;29;20045;-78
2023/09/16 01:09:17;;;;;;;3.35;2.72;;;12.50;99.90;;;;;;4877428;29;20061;-78
2023/09/16 01:11:43;;;;;;;3.15;2.70;;;12.60;99.90;;;;;;4876682;29;20500;-78
2023/09/16 01:14:13;;;;;;;2.92;2.03;;;12.60;99.90;;;;;;4861249;29;20067;-78
2023/09/16 01:16:48;;;;;;;2.75;1.95;;;12.60;99.90;;;;;;4877017;29;20096;-78
2023/09/16 01:19:46;;;;;;;2.55;1.83;;;12.60;99.90;;;;;;4876887;29;20084;-78
2023/09/16 01:22:12;;;;;;;;;;;12.60;99.90;;;;;;4869964;29;20506;-78
2023/09/16 01:24:38;;;;;;;3.22;2.50;;;12.60;99.90;;;;;;4876892;29;19935;-78
2023/09/16 01:27:04;;;;;;;2.70;2.00;;;12.50;99.90;;;;;;4876932;29;20049;-78
2023/09/16 01:29:30;;;;;;;2.42;2.00;;;12.50;99.90;;;;;;4876819;29;20467;-78
2023/09/16 01:32:01;;;;;;;2.08;1.88;;;12.50;99.90;;;;;;4876321;29;20067;-78
2023/09/16 01:34:44;;;;;;;2.85;2.30;;;12.50;99.90;;;;;;4861574;29;20053;-78
2023/09/16 01:37:18;;;;;;;2.78;2.40;;;12.50;99.90;;;;;;4875095;29;20037;-78
2023/09/16 01:39:52;;;;;;;2.95;2.25;;;12.50;99.90;;;;;;4876906;29;20485;-78
2023/09/16 01:42:19;;;;;;;4.38;2.10;;;12.40;99.90;;;;;;4876722;29;20814;-78
2023/09/16 01:44:44;;;;;;;2.97;2.13;;;12.40;99.90;;;;;;4861103;29;20059;-78
2023/09/16 01:47:10;;;;;;;2.63;2.13;;;12.40;99.90;;;;;;4860464;29;20048;-78
2023/09/16 01:49:36;;;;;;;2.50;2.00;;;12.30;99.90;;;;;;4876809;29;20052;-78
2023/09/16 01:52:02;;;;;;;2.47;2.10;;;12.30;99.90;;;;;;4877028;29;20049;-78
2023/09/16 01:54:28;;;;;;;3.45;2.45;;;12.30;99.90;;;;;;4861015;29;20091;-78
2023/09/16 01:56:54;;;;;;;2.45;1.90;;;12.30;99.90;;;;;;4876417;29;20076;-78
2023/09/16 01:59:20;;;;;;;2.53;2.03;;;12.20;99.90;;;;;;4876342;29;20076;-78
2023/09/16 02:01:46;;;;;;;2.25;1.90;;;12.20;99.90;;;;;;4856443;29;20041;-78
2023/09/16 02:04:12;;;;;;;2.20;1.83;;;12.20;99.90;;;;;;4862825;29;20049;-78
2023/09/16 02:06:38;;;;;;;;;;;12.20;99.90;;;;;;4876116;29;20048;-78
2023/09/16 02:09:04;;;;;;;2.10;1.85;;;12.20;99.90;;;;;;4875611;29;19920;-78
2023/09/16 02:11:33;;;;;;;2.47;1.90;;;12.10;99.90;;;;;;4876787;29;20053;-77
2023/09/16 02:13:59;;;;;;;1.90;1.70;;;12.10;99.90;;;;;;4877201;29;20080;-77
2023/09/16 02:16:24;;;;;;;2.60;2.10;;;12.10;99.90;;;;;;4849898;29;20048;-78
2023/09/16 02:18:50;;;;;;;3.28;2.70;;;12.10;99.90;;;;;;4856314;29;20045;-78
2023/09/16 02:21:16;;;;;;;2.83;2.53;;;12.10;99.90;;;;;;4876207;29;20180;-78
2023/09/16 02:23:41;;;;;;;3.40;2.35;;;12.00;99.90;;;;;;4875651;29;20385;-78
2023/09/16 02:26:07;;;;;;;3.05;1.98;;;12.00;99.90;;;;;;4876316;29;20045;-78
2023/09/16 02:28:33;;;;;;;2.28;2.05;;;12.00;99.90;;;;;;4852636;29;20048;-78
2023/09/16 02:30:59;;;;;;;2.00;1.80;;;12.00;99.90;;;;;;4870173;29;20061;-77
2023/09/16 02:33:24;;;;;;;3.65;2.20;;;12.00;99.90;;;;;;4876132;29;20057;-78
2023/09/16 02:35:50;;;;;;;2.60;1.98;;;12.00;99.90;;;;;;4876457;29;20056;-78
2023/09/16 02:38:16;;;;;;;2.40;1.92;;;12.00;99.90;;;;;;4860586;29;20045;-78
2023/09/16 02:40:42;;;;;;;2.40;2.08;;;12.00;99.90;;;;;;4855892;29;20117;-78
2023/09/16 02:43:08;;;;;;;2.33;2.00;;;11.90;99.90;;;;;;4865963;29;20045;-78
2023/09/16 02:45:44;;;;;;;2.90;2.35;;;11.90;99.90;;;;;;4860358;29;20124;-78
2023/09/16 02:48:10;;;;;;;2.20;2.00;;;11.90;99.90;;;;;;4870317;29;20053;-78
2023/09/16 02:50:39;;;;;;;;;;;11.80;99.90;;;;;;4872698;29;20055;-78
2023/09/16 02:53:05;;;;;;;2.35;2.15;;;11.80;99.90;;;;;;4875614;29;19931;-78
2023/09/16 02:55:32;;;;;;;2.40;2.20;;;11.80;99.90;;;;;;4875644;29;20049;-78
2023/09/16 02:58:02;;;;;;;3.30;2.42;;;11.80;99.90;;;;;;4875378;29;20051;-78
2023/09/16 03:00:28;;;;;;;3.63;2.83;;;11.80;99.90;;;;;;4860230;29;20124;-78
2023/09/16 03:02:54;;;;;;;3.13;2.67;;;11.80;99.90;;;;;;4875472;29;20056;-78
2023/09/16 03:05:20;;;;;;;2.80;2.33;;;11.80;99.90;;;;;;4875816;29;20045;-78
2023/09/16 03:07:46;;;;;;;2.67;2.20;;;11.80;99.90;;;;;;4858141;29;20060;-78
2023/09/16 03:10:12;;;;;;;2.20;2.00;;;11.70;99.90;;;;;;4850918;29;20409;-78
2023/09/16 03:12:38;;;;;;;3.10;2.15;;;11.80;99.90;;;;;;4875313;29;20052;-78
2023/09/16 03:15:04;;;;;;;2.78;2.10;;;11.70;99.90;;;;;;4875430;29;20063;-78
2023/09/16 03:17:30;;;;;;;;;;;11.70;99.90;;;;;;4860442;29;20049;-78
2023/09/16 03:19:56;;;;;;;2.90;2.30;;;11.80;99.90;;;;;;4875393;29;20263;-78
2023/09/16 03:22:22;;;;;;;2.88;2.33;;;11.70;99.90;;;;;;4875469;29;20041;-78
2023/09/16 03:24:48;;;;;;;2.90;2.45;;;11.70;99.90;;;;;;4874886;29;20131;-78
2023/09/16 03:27:14;;;;;;;2.63;2.10;;;11.70;99.90;;;;;;4874942;29;20080;-78
2023/09/16 03:29:40;;;;;;;2.65;2.20;;;11.60;99.90;;;;;;4874625;29;20088;-78
2023/09/16 03:32:06;;;;;;;3.00;2.50;;;11.60;99.90;;;;;;4858881;29;20065;-78
2023/09/16 03:34:31;;;;;;;2.25;2.00;;;11.60;99.90;;;;;;4859679;29;20148;-78
2023/09/16 03:36:57;;;;;;;2.33;2.00;;;11.50;99.90;;;;;;4875932;29;20045;-78
2023/09/16 03:39:23;;;;;;;2.65;2.22;;;11.50;99.90;;;;;;4878889;29;20131;-78
2023/09/16 03:41:49;;;;;;;2.83;2.33;;;11.50;99.90;;;;;;4878669;29;20124;-78
2023/09/16 03:44:15;;;;;;;4.15;2.30;;;11.50;99.90;;;;;;4863096;29;20080;-78
2023/09/16 03:46:41;;;;;;;3.38;2.55;;;11.50;99.90;;;;;;4878833;29;20052;-78
2023/09/16 03:49:07;;;;;;;2.20;1.88;;;11.40;99.90;;;;;;4878263;29;20075;-78
2023/09/16 03:51:34;;;;;;;;;;;11.40;99.90;;;;;;4879266;29;20037;-77
2023/09/16 03:54:00;;;;;;;2.73;2.30;;;11.40;99.90;;;;;;4862608;29;19964;-77
2023/09/16 03:56:25;;;;;;;2.90;2.00;;;11.30;99.90;;;;;;4878852;29;20120;-78
2023/09/16 03:58:51;;;;;;;2.92;2.50;;;11.40;99.90;;;;;;4877735;29;20510;-78
2023/09/16 04:01:17;;;;;;;3.72;3.10;;;11.40;99.90;;;;;;4873719;29;20037;-78
2023/09/16 04:03:44;;;;;;;3.03;2.60;;;11.40;99.90;;;;;;4853917;29;20037;-78
2023/09/16 04:06:10;;;;;;;2.60;2.40;;;11.40;99.90;;;;;;4877372;29;20049;-78
2023/09/16 04:08:36;;;;;;;2.78;2.47;;;11.40;99.90;;;;;;4876815;29;20041;-78
2023/09/16 04:11:02;;;;;;;;;;;11.30;99.90;;;;;;4875025;29;20044;-78
2023/09/16 04:13:27;;;;;;;2.63;2.42;;;11.30;99.90;;;;;;4877783;29;19929;-78
2023/09/16 04:15:54;;;;;;;3.08;2.42;;;11.30;99.90;;;;;;4877455;29;20065;-78
2023/09/16 04:18:20;;;;;;;2.40;2.20;;;11.30;99.90;;;;;;4862357;29;20530;-78
2023/09/16 04:20:47;;;;;;;2.72;2.28;;;11.30;99.90;;;;;;4877461;29;20053;-77
2023/09/16 04:23:13;;;;;;;2.78;2.28;;;11.20;99.90;;;;;;4878149;29;20133;-78
2023/09/16 04:25:39;;;;;;;2.72;2.30;;;11.20;99.90;;;;;;4877617;29;20460;-78
2023/09/16 04:28:05;;;;;;;3.50;2.70;;;11.20;99.90;;;;;;4877349;29;20128;-78
2023/09/16 04:30:37;;;;;;;3.90;2.88;;;11.20;99.90;;;;;;4876847;29;20051;-78
2023/09/16 04:33:03;;;;;;;3.10;2.75;;;11.30;99.90;;;;;;4877577;29;20121;-78
2023/09/16 04:35:29;;;;;;;3.08;2.50;;;11.30;99.90;;;;;;4861921;29;20045;-78
2023/09/16 04:37:55;;;;;;;2.70;2.10;;;11.20;99.90;;;;;;4853256;29;20463;-78
2023/09/16 04:40:21;;;;;;;3.38;2.40;;;11.20;99.90;;;;;;4876090;29;20041;-78
2023/09/16 04:42:47;;;;;;;3.55;2.60;;;11.20;99.90;;;;;;4877914;29;20052;-78
2023/09/16 04:45:15;;;;;;;2.65;2.20;;;11.20;99.90;;;;;;4877108;29;20069;-77
2023/09/16 04:47:41;;;;;;;3.08;2.45;;;11.20;99.90;;;;;;4862784;29;20699;-78
2023/09/16 04:50:07;;;;;;;;;;;11.20;99.90;;;;;;4878128;29;20064;-78
2023/09/16 04:52:33;;;;;;;2.30;2.00;;;11.20;99.90;;;;;;4877591;29;20430;-78
2023/09/16 04:54:58;;;;;;;4.78;2.63;;;11.20;99.90;;;;;;4877396;29;20076;-78
2023/09/16 04:57:25;;;;;;;3.20;2.50;;;11.20;99.90;;;;;;4877426;29;20101;-78
2023/09/16 04:59:51;;;;;;;2.40;2.20;;;11.20;99.90;;;;;;4862003;29;20555;-78
2023/09/16 05:02:17;;;;;;;2.88;2.50;;;11.20;99.90;;;;;;4862021;29;20128;-78
2023/09/16 05:04:42;;;;;;;3.20;2.55;;;11.20;99.90;;;;;;4862048;29;20056;-78
2023/09/16 05:07:08;;;;;;;2.80;2.40;;;11.20;99.90;;;;;;4877156;29;20161;-78
2023/09/16 05:09:35;;;;;;;2.20;2.00;;;11.20;99.90;;;;;;4877250;29;20127;-78
2023/09/16 05:12:02;;;;;;;2.50;2.05;;;11.20;99.90;;;;;;4861995;29;20049;-77
2023/09/16 05:14:28;;;;;;;2.33;2.10;;;11.20;99.90;;;;;;4877024;29;20497;-78
2023/09/16 05:16:54;;;;;;;2.30;1.95;;;11.10;99.90;;;;;;4876911;29;20045;-78
2023/09/16 05:19:19;;;;;;;2.38;2.13;;;11.10;99.90;;;;;;4877109;29;20092;-78
2023/09/16 05:21:45;;;;;;;2.58;2.00;;;11.20;99.90;;;;;;4877217;29;20045;-78
2023/09/16 05:24:10;;;;;;;2.45;2.00;;;11.10;99.90;;;;;;4877152;29;20052;-78
2023/09/16 05:26:36;;;;;;;2.90;2.10;;;11.10;99.90;;;;;;4876764;29;20772;-78
2023/09/16 05:29:02;;;;;;;2.60;2.20;;;11.10;99.90;;;;;;4876613;29;20152;-78
2023/09/16 05:31:28;;;;;;;2.25;1.88;;;11.20;99.90;;;;;;4861102;29;20057;-78
2023/09/16 05:33:53;;;;;;;2.42;1.80;;;11.20;99.90;;;;;;4861318;29;20839;-78
2023/09/16 05:36:20;;;;;;;2.28;1.83;;;11.20;99.90;;;;;;4876597;29;20150;-77
2023/09/16 05:38:46;;;;;;;2.25;1.90;;;11.20;99.90;;;;;;4877064;29;20124;-78
2023/09/16 05:41:11;;;;;;;2.30;2.10;;;11.20;99.90;;;;;;4861450;29;20151;-78
2023/09/16 05:43:37;;;;;;;2.40;1.88;;;11.20;99.90;;;;;;4861414;29;20097;-78
2023/09/16 05:46:05;;;;;;;2.40;2.20;;;11.20;99.90;;;;;;4859689;29;20480;-78
2023/09/16 05:48:31;;;;;;;2.67;2.28;;;11.30;99.90;;;;;;4878539;29;20076;-78
2023/09/16 05:50:58;;;;;;;2.20;1.90;;;11.30;99.90;;;;;;4876758;29;20461;-79
2023/09/16 05:53:24;;;;;;;2.63;2.20;;;11.40;99.90;;;;;;4877137;29;20048;-78
2023/09/16 05:55:50;;;;;;;2.95;2.28;;;11.40;99.90;;;;;;4876171;29;20041;-79
2023/09/16 05:58:16;;;;;;;;;;;11.50;99.90;;;;;;4876693;29;20052;-79
2023/09/16 06:00:42;;;;;;;2.83;2.20;;;11.60;99.90;;;;;;4875468;29;19920;-79
2023/09/16 06:03:08;;;;;;;3.03;2.30;;;11.60;99.90;;;;;;4861320;29;20078;-79
2023/09/16 06:05:34;;;;;;;2.40;1.90;;;11.70;99.90;;;;;;4845617;29;20048;-79
2023/09/16 06:08:00;;;;;;;2.75;2.22;;;11.70;99.90;;;;;;4860821;29;20528;-79
2023/09/16 06:10:26;;;;;;;2.55;2.00;;;11.70;99.90;;;;;;4876151;29;20164;-79
2023/09/16 06:12:52;;;;;;;2.63;2.38;;;11.80;99.90;;;;;;4873648;29;20045;-79
2023/09/16 06:15:18;;;;;;;2.53;2.20;;;11.90;99.90;;;;;;4860886;29;20041;-79
2023/09/16 06:17:43;;;;;;;2.45;2.03;;;12.00;99.90;;;;;;4875494;29;20425;-79
2023/09/16 06:20:09;;;;;;;3.10;2.47;;;12.10;99.90;;;;;;4860760;29;20049;-79
2023/09/16 06:22:35;;;;;;;2.88;2.42;;;12.20;99.90;;;;;;4875493;29;20049;-79
2023/09/16 06:25:01;;;;;;;3.30;3.00;;;12.40;99.90;;;;;;4876217;29;20068;-79
2023/09/16 06:27:27;;;;;;;3.33;2.75;;;12.50;99.90;;;;;;4875594;29;20420;-79
2023/09/16 06:29:53;;;;;;;2.65;2.42;;;12.70;99.90;;;;;;4875064;29;20110;-79
2023/09/16 06:32:19;;;;;;;3.05;2.75;;;12.80;99.90;;;;;;4875723;29;20056;-79
2023/09/16 06:34:45;;;;;;;3.03;2.53;;;13.00;99.90;;;;;;4875720;29;20135;-79
2023/09/16 06:37:10;;;;;;;3.47;3.00;;;13.10;99.90;;;;;;4875836;29;20127;-79
2023/09/16 06:39:37;;;;;;;3.10;2.80;;;13.20;99.90;;;;;;4845178;29;20048;-79
2023/09/16 06:42:04;;;;;;;3.03;2.63;;;13.40;99.90;;;;;;4875587;29;20052;-79
2023/09/16 06:44:31;;;;;;;2.33;2.10;;;13.50;99.90;;;;;;4860550;29;20056;-76
2023/09/16 06:46:56;;;;;;;;;;;13.60;99.90;;;;;;4855208;29;20479;-78
2023/09/16 06:49:22;;;;;;;2.70;2.38;;;13.70;99.90;;;;;;4856499;29;19967;-78
2023/09/16 06:51:48;;;;;;;3.33;2.70;;;14.00;99.90;;;;;;4875528;29;20570;-78
2023/09/16 06:54:14;;;;;;;3.40;3.10;;;14.40;99.90;;;;;;4875091;29;20045;-78
2023/09/16 06:56:40;;;;;;;4.43;3.60;;;14.90;99.90;;;;;;4875461;29;20518;-76
2023/09/16 06:59:06;;;;;;;4.25;3.50;;;15.20;99.90;;;;;;4875333;29;20041;-76
2023/09/16 07:01:32;;;;;;;;;;;15.50;99.90;;;;;;4859387;29;20057;-76
2023/09/16 07:03:58;;;;;;;4.97;3.65;;;15.80;99.90;;;;;;4874506;29;19962;-76
2023/09/16 07:06:23;;;;;;;3.97;3.55;;;16.10;99.90;;;;;;4858503;29;20041;-76
2023/09/16 07:08:49;;;;;;;4.20;3.80;;;16.20;99.90;;;;;;4858955;29;20128;-76
2023/09/16 07:11:17;;;;;;;;;;;16.40;99.90;;;;;;4875198;29;20052;-76
2023/09/16 07:13:43;;;;;;;3.53;3.22;;;16.60;99.90;;;;;;4879763;29;19974;-76
2023/09/16 07:16:12;;;;;;;3.55;2.90;;;16.80;99.90;;;;;;4878763;29;20064;-76
2023/09/16 07:18:37;;;;;;;3.88;3.13;;;16.90;99.90;;;;;;4878964;29;20040;-76
2023/09/16 07:21:03;;;;;;;;;;;17.10;99.90;;;;;;4879467;29;20060;-76
2023/09/16 07:23:29;;;;;;;3.08;2.50;;;17.40;99.90;;;;;;4878867;29;20039;-76
2023/09/16 07:25:55;;;;;;;;;;;17.60;99.90;;;;;;4879597;29;20048;-76
2023/09/16 07:28:22;;;;;;;3.67;2.67;;;17.80;99.90;;;;;;4863243;29;20398;-76
2023/09/16 07:30:47;;;;;;;2.88;2.40;;;18.00;99.90;;;;;;4878702;29;20041;-76
2023/09/16 07:33:13;;;;;;;2.50;2.20;;;18.20;99.90;;;;;;4878409;29;20104;-76
2023/09/16 07:35:39;;;;;;;;;;;18.20;99.90;;;;;;4879210;29;20525;-76
2023/09/16 07:38:05;;;;;;;3.03;2.70;;;18.30;99.90;;;;;;4878631;29;20084;-76
2023/09/16 07:40:32;;;;;;;;;;;18.40;99.90;;;;;;4880559;29;20037;-76
2023/09/16 07:42:58;;;;;;;3.05;2.75;;;18.50;99.90;;;;;;4878621;29;20018;-77
2023/09/16 07:45:24;;;;;;;4.45;2.63;;;18.50;99.90;;;;;;4848160;29;20076;-77
2023/09/16 07:47:50;;;;;;;3.83;2.80;;;18.50;99.90;;;;;;4862793;29;20512;-77
2023/09/16 07:50:17;;;;;;;;;;;18.60;99.90;;;;;;4879371;29;20051;-77
2023/09/16 07:52:42;;;;;;;3.30;2.78;;;18.70;89.40;;;;;;4878435;29;19923;-77
2023/09/16 07:55:08;;;;;;;3.97;2.72;;;18.90;1.00;;;;;;4878555;29;20105;-77
2023/09/16 07:57:34;;;;;;;3.28;2.55;;;19.00;99.90;;;;;;4862691;29;20134;-77
2023/09/16 07:59:59;;;;;;;3.22;2.63;;;19.10;99.90;;;;;;4878709;29;20045;-77
2023/09/16 08:02:25;;;;;;;4.20;3.20;;;19.30;99.90;;;;;;4862847;29;20430;-77
2023/09/16 08:04:51;;;;;;;3.30;2.90;;;19.50;99.90;;;;;;4878472;29;20517;-77
2023/09/16 08:07:17;;;;;;;3.47;2.90;;;19.60;99.90;;;;;;4878137;29;20049;-77
2023/09/16 08:09:42;;;;;;;3.13;2.83;;;19.60;99.90;;;;;;4878394;29;20045;-76
2023/09/16 08:12:08;;;;;;;2.88;2.58;;;19.80;1.00;;;;;;4877909;29;20531;-76
2023/09/16 08:14:34;;;;;;;3.85;2.80;;;19.90;99.90;;;;;;4878117;29;20041;-76
2023/09/16 08:17:03;;;;;;;4.10;2.50;;;19.90;82.30;;;;;;4878231;29;20045;-76
2023/09/16 08:19:30;;;;;;;2.72;2.40;;;20.10;99.90;;;;;;4862612;29;20048;-77
2023/09/16 08:21:56;;;;;;;3.28;2.33;;;20.20;1.00;;;;;;4862383;29;20040;-76
2023/09/16 08:24:22;;;;;;;2.55;2.35;;;20.30;1.00;;;;;;4877329;29;20036;-77
2023/09/16 08:26:48;;;;;;;3.90;2.45;;;20.40;99.90;;;;;;4862863;29;20424;-77
2023/09/16 08:29:14;;;;;;;3.25;2.40;;;20.50;1.00;;;;;;4877797;29;20104;-77
2023/09/16 08:31:40;;;;;;;2.45;2.25;;;20.60;1.00;;;;;;4877193;29;20064;-77
2023/09/16 08:34:05;;;;;;;3.15;2.70;;;20.80;1.00;;;;;;4846916;29;20083;-77
2023/09/16 08:36:31;;;;;;;2.70;2.28;;;20.90;1.00;;;;;;4877735;29;20045;-77
2023/09/16 08:38:57;;;;;;;3.00;2.15;;;21.00;99.90;;;;;;4877701;29;20194;-77
2023/09/16 08:41:54;;;;;;;4.72;2.92;;;21.00;99.90;;;;;;4877976;29;20049;-77
2023/09/16 08:44:23;;;;;;;4.47;3.42;;;20.90;99.90;;;;;;4877237;29;20597;-77
2023/09/16 08:46:58;;;;;;;3.22;2.53;;;20.70;1.00;;;;;;4862090;29;20571;-78
2023/09/16 08:49:27;;;;;;;3.00;2.70;;;20.70;99.90;;;;;;4877184;29;20041;-77
2023/09/16 08:51:54;;;;;;;3.05;2.50;;;20.60;1.00;;;;;;4877301;29;20412;-77
2023/09/16 08:54:22;;;;;;;4.25;2.60;;;20.70;99.90;;;;;;4877253;29;20056;-77
2023/09/16 08:56:49;;;;;;;4.15;2.65;;;20.80;99.90;;;;;;4878299;29;20049;-77
2023/09/16 08:59:14;;;;;;;3.15;2.53;;;20.80;99.90;;;;;;4877896;29;20490;-78
2023/09/16 09:01:42;;;;;;;3.33;2.80;;;20.80;74.70;;;;;;4865265;29;20105;-77
2023/09/16 09:04:09;;;;;;;3.97;3.00;;;20.80;99.90;;;;;;4882356;29;20421;-78
2023/09/16 09:06:36;;;;;;;3.13;2.70;;;20.70;99.90;;;;;;4867250;29;20120;-77
2023/09/16 09:09:02;;;;;;;2.42;2.03;;;20.80;99.90;;;;;;4880715;29;20052;-78
2023/09/16 09:11:31;;;;;;;4.93;3.00;;;20.80;99.90;;;;;;4877296;29;20045;-78
2023/09/16 09:13:59;;;;;;;3.22;2.50;;;20.80;99.90;;;;;;4877543;29;20052;-78
2023/09/16 09:16:27;;;;;;;2.72;2.30;;;20.90;99.90;;;;;;4877014;29;20053;-78
2023/09/16 09:18:56;;;;;;;3.75;2.90;;;20.80;99.90;;;;;;4861300;29;20119;-78
2023/09/16 09:21:22;;;;;;;3.63;2.60;;;20.80;99.90;;;;;;4870262;29;20419;-78
2023/09/16 09:23:48;;;;;;;3.03;2.45;;;20.90;99.90;;;;;;4877168;29;20053;-78
2023/09/16 09:26:14;;;;;;;3.10;2.40;;;20.90;99.90;;;;;;4876925;29;20049;-78
2023/09/16 09:28:44;;;;;;;3.45;2.80;;;21.00;99.90;;;;;;4876648;29;20533;-78
2023/09/16 09:31:11;;;;;;;2.88;2.42;;;21.00;99.50;;;;;;4876647;29;20077;-78
2023/09/16 09:33:42;;;;;;;2.03;1.73;;;21.10;99.90;;;;;;4876544;29;20408;-78
2023/09/16 09:36:13;;;;;;;3.25;2.13;;;21.20;99.90;;;;;;4876185;29;20053;-78
2023/09/16 09:38:44;;;;;;;3.65;2.10;;;21.30;1.00;;;;;;4876426;29;20041;-78
2023/09/16 09:41:10;;;;;;;2.78;2.17;;;21.40;99.90;;;;;;4876516;29;20056;-78
2023/09/16 09:43:36;;;;;;;2.70;2.40;;;21.40;99.90;;;;;;4876250;29;20044;-79
2023/09/16 09:46:02;;;;;;;2.95;2.55;;;21.30;85.00;;;;;;4876736;29;20104;-79
2023/09/16 09:48:29;;;;;;;2.67;1.85;;;21.40;99.90;;;;;;4878191;29;20076;-79
2023/09/16 09:50:55;;;;;;;1.70;1.40;;;21.40;31.90;;;;;;4861822;29;20055;-79
2023/09/16 09:53:24;;;;;;;1.58;1.38;;;21.50;99.90;;;;;;4878106;29;20041;-79
2023/09/16 09:55:50;;;;;;;2.10;1.27;;;21.60;99.90;;;;;;4877898;29;20045;-79
2023/09/16 09:58:17;;;;;;;1.80;1.48;;;21.70;95.00;;;;;;4877219;29;20750;-79
2023/09/16 10:00:48;;;;;;;2.63;1.77;;;21.80;19.60;;;;;;4876166;29;20037;-79
2023/09/16 10:03:14;;;;;;;2.38;1.75;;;21.80;99.90;;;;;;4877254;29;20076;-79
2023/09/16 10:05:40;;;;;;;2.13;1.42;;;21.80;99.90;;;;;;4877494;29;20052;-79
2023/09/16 10:08:06;;;;;;;2.38;1.33;;;21.80;99.90;;;;;;4878177;29;20045;-79
2023/09/16 10:10:32;;;;;;;2.60;1.85;;;21.90;1.00;;;;;;4861892;29;20105;-79
2023/09/16 10:12:58;;;;;;;2.22;1.83;;;21.90;99.90;;;;;;4879038;29;20045;-79
2023/09/16 10:15:35;;;;;;;1.45;1.20;;;21.90;99.90;;;;;;4875546;29;20045;-79
2023/09/16 10:18:04;;;;;;;2.22;1.55;;;22.10;99.90;;;;;;4878197;29;20049;-79
2023/09/16 10:20:32;;;;;;;1.80;1.50;;;22.20;99.90;;;;;;4862499;29;20116;-79
2023/09/16 10:22:59;;;;;;;2.10;1.60;;;22.20;99.90;;;;;;4854429;29;20053;-80
2023/09/16 10:25:28;;;;;;;2.10;1.70;;;22.40;99.90;;;;;;4877150;29;20189;-78
2023/09/16 10:27:58;;;;;;;2.30;1.92;;;22.50;1.00;;;;;;4877180;29;20100;-79
2023/09/16 10:30:25;;;;;;;2.45;1.90;;;22.50;16.40;;;;;;4860548;29;20480;-78
2023/09/16 10:32:52;;;;;;;1.60;1.30;;;22.60;93.00;;;;;;4876458;29;20069;-79
2023/09/16 10:35:19;;;;;;;3.33;2.17;;;22.80;99.90;;;;;;4861256;29;20053;-79
2023/09/16 10:37:48;;;;;;;2.60;1.90;;;22.90;1.00;;;;;;4876910;29;20053;-79
2023/09/16 10:40:15;;;;;;;1.88;1.55;;;22.90;25.50;;;;;;4860854;29;20053;-79
2023/09/16 10:42:44;;;;;;;1.70;1.27;;;23.20;78.50;;;;;;4876100;29;20052;-79
2023/09/16 10:45:13;;;;;;;2.70;1.80;;;23.50;1.00;;;;;;4875499;29;20047;-80
2023/09/16 10:47:39;;;;;;;2.33;1.48;;;23.60;1.00;;;;;;4860471;29;20378;-80
2023/09/16 10:50:05;;;;;;;2.92;1.67;;;23.80;1.00;;;;;;4875353;29;20037;-80
2023/09/16 10:52:41;;;;;;;3.10;1.70;;;24.00;99.90;;;;;;4875695;29;20064;-80
2023/09/16 10:55:45;;;;;;;3.10;2.05;;;24.10;99.90;;;;;;4875684;29;20116;-80
2023/09/16 10:58:20;;;;;;;1.65;1.40;;;24.10;97.60;;;;;;4862096;29;20052;-80
2023/09/16 11:00:54;;;;;;;1.17;1.00;;;24.30;99.90;;;;;;4875268;29;20057;-79
2023/09/16 11:03:27;;;;;;;0.88;0.88;;;24.60;99.90;;;;;;4860581;29;20397;-81
2023/09/16 11:05:52;;;;;;;3.17;1.50;;;24.90;99.90;;;;;;4875419;29;20049;-80
2023/09/16 11:08:18;;;;;;;1.60;1.50;;;25.00;96.80;;;;;;4876101;29;20052;-80
2023/09/16 11:10:44;;;;;;;2.00;1.40;;;24.90;99.90;;;;;;4875538;29;20541;-80
2023/09/16 11:13:10;;;;;;;1.45;1.23;;;25.00;1.00;;;;;;4860043;29;20045;-80
2023/09/16 11:15:36;;;;;;;1.42;1.02;;;25.10;1.00;;;;;;4859987;29;20045;-80
2023/09/16 11:18:03;;;;;;;1.20;1.10;;;25.40;1.00;;;;;;4875729;29;20048;-80
2023/09/16 11:20:32;;;;;;;1.35;1.20;;;25.60;1.00;;;;;;4860015;29;20045;-79
2023/09/16 11:23:01;;;;;;;2.50;1.75;;;25.50;99.90;;;;;;4874369;29;20140;-80
2023/09/16 11:25:34;;;;;;;2.30;1.70;;;25.40;99.90;;;;;;4875325;29;20049;-77
2023/09/16 11:28:06;;;;;;;2.67;2.05;;;25.40;99.90;;;;;;4875486;29;20068;-77
2023/09/16 11:30:33;;;;;;;2.47;1.75;;;25.20;99.90;;;;;;4860114;29;20523;-77
2023/09/16 11:32:58;;;;;;;1.48;1.10;;;25.20;1.00;;;;;;4875068;29;20059;-77
2023/09/16 11:35:27;;;;;;;1.17;1.00;;;25.50;1.00;;;;;;4875469;29;20049;-77
2023/09/16 11:37:57;;;;;;;1.40;1.10;;;25.80;1.00;;;;;;4875451;29;20041;-79
2023/09/16 11:40:27;;;;;;;1.65;1.40;;;25.90;50.70;;;;;;4859666;29;20037;-78
2023/09/16 11:42:54;;;;;;;2.20;1.60;;;26.10;99.90;;;;;;4875262;29;20041;-78
2023/09/16 11:45:20;;;;;;;1.88;1.40;;;25.90;23.40;;;;;;4875038;29;20128;-78
2023/09/16 11:47:50;;;;;;;1.83;1.20;;;25.80;32.90;;;;;;4863257;29;20454;-78
2023/09/16 11:50:23;;;;;;;1.42;1.10;;;25.90;99.90;;;;;;4875248;29;20052;-79
2023/09/16 11:52:49;;;;;;;1.95;1.27;;;25.80;93.80;;;;;;4862726;29;20049;-79
2023/09/16 11:55:16;;;;;;;2.22;1.50;;;25.60;99.90;;;;;;4875269;29;20049;-79
2023/09/16 11:57:42;;;;;;;2.17;1.20;;;25.30;99.90;;;;;;4875092;29;20124;-78
2023/09/16 12:00:39;;;;;;;1.77;1.30;;;25.10;99.90;;;;;;4878607;29;20041;-78
2023/09/16 12:03:05;;;;;;;1.88;1.40;;;25.00;99.90;;;;;;4845517;29;20045;-78
2023/09/16 12:05:30;;;;;;;1.83;1.20;;;24.80;98.70;;;;;;4872071;29;20080;-78
2023/09/16 12:07:56;;;;;;;3.13;1.60;;;24.70;99.90;;;;;;4863181;29;20041;-79
2023/09/16 12:10:23;;;;;;;2.22;1.60;;;24.30;99.90;;;;;;4863054;29;20041;-78
2023/09/16 12:12:51;;;;;;;2.97;1.92;;;24.10;99.90;;;;;;4862363;29;20420;-78
2023/09/16 12:15:17;;;;;;;1.83;1.17;;;23.90;99.90;;;;;;4878387;29;20057;-78
2023/09/16 12:17:43;;;;;;;2.30;1.58;;;23.90;99.90;;;;;;4878026;29;20044;-78
2023/09/16 12:20:09;;;;;;;2.30;1.48;;;23.90;99.90;;;;;;4863029;29;20048;-78
2023/09/16 12:22:35;;;;;;;4.05;1.40;;;23.90;99.90;;;;;;4878061;29;20041;-78
2023/09/16 12:25:02;;;;;;;2.03;1.15;;;23.90;1.00;;;;;;4878275;29;20066;-78
2023/09/16 12:27:28;;;;;;;2.33;1.40;;;23.90;12.80;;;;;;4862765;29;20067;-78
2023/09/16 12:29:53;;;;;;;1.42;1.10;;;23.90;99.90;;;;;;4860038;29;20140;-78
2023/09/16 12:32:21;;;;;;;1.42;1.17;;;23.90;1.00;;;;;;4854414;29;20144;-78
2023/09/16 12:35:05;;;;;;;1.70;1.20;;;23.90;99.90;;;;;;4877934;29;20049;-78
2023/09/16 12:37:31;;;;;;;1.38;1.10;;;24.10;99.90;;;;;;4862524;29;20810;-78
2023/09/16 12:39:58;;;;;;;1.13;1.00;;;24.30;1.00;;;;;;4862865;29;20045;-78
2023/09/16 12:42:24;;;;;;;1.55;1.05;;;24.40;99.90;;;;;;4878086;29;20036;-78
2023/09/16 12:44:51;;;;;;;1.45;1.05;;;24.40;1.00;;;;;;4828626;29;20050;-78
2023/09/16 12:47:19;;;;;;;1.42;1.02;;;24.30;99.90;;;;;;4854721;29;20056;-78
2023/09/16 12:49:45;;;;;;;2.42;1.20;;;24.10;99.90;;;;;;4862576;29;20129;-78
2023/09/16 12:52:11;;;;;;;2.17;1.00;;;23.90;99.90;;;;;;4861739;29;20144;-78